Chem Orion — V7GZ9 — position and weather

sailwx.info

Track history (hours):
 
Tides and Currents Weather Stations Pressure Air Temp Water Temp Dewpoint Dewpoint Depression Visibility Wind Speed Wind Dir Waves Ship Positions

Chem Orion

Last reported at 2017-Feb-22 14:31 UTC. Time now 2017-Feb-22 15:31 UTC.
Position N 01°15' E 103°53'.

Length 125 m; draft 5.1 m.

Type: Ship (hazmat cat D). MMSI: 538002197.

Date/timePositionNaut miles runAvg speedWind from/ knotsBaromVisibWave heightAir tempDewpointWater temp
2017-Feb-22 14:31N 01°15' E 103°53'0 0.0
2017-Feb-22 13:28N 01°15' E 103°53'0 0.0
2017-Feb-22 12:28N 01°15' E 103°53'0 0.0
2017-Feb-22 11:31N 01°15' E 103°53'0 0.0
2017-Feb-22 10:25N 01°15' E 103°53'0 0.0
2017-Feb-22 09:31N 01°15' E 103°53'0 0.0
2017-Feb-22 08:34N 01°15' E 103°53'0 0.0
2017-Feb-22 07:25N 01°15' E 103°53'0 0.1
2017-Feb-22 06:34N 01°15' E 103°53'0 0.1
2017-Feb-22 05:31N 01°15' E 103°53'0 0.1
2017-Feb-22 04:34N 01°15' E 103°53'0 0.0
2017-Feb-22 03:28N 01°15' E 103°53'0 0.1
2017-Feb-22 02:34N 01°15' E 103°53'0 0.2
2017-Feb-22 01:22N 01°15' E 103°53'0 0.0
2017-Feb-22 00:34N 01°15' E 103°53'0 0.1
2017-Feb-21 23:34N 01°15' E 103°53'0 0.1
2017-Feb-21 22:33N 01°15' E 103°53'0 0.0
2017-Feb-21 21:31N 01°15' E 103°53'0 0.0
2017-Feb-21 20:34N 01°15' E 103°53'0 0.1
2017-Feb-21 19:30N 01°15' E 103°53'0 0.0
2017-Feb-21 18:27N 01°15' E 103°53'0 0.1
2017-Feb-21 17:34N 01°15' E 103°53'0 0.0
2017-Feb-21 16:31N 01°15' E 103°53'0 0.0
2017-Feb-21 15:16N 01°15' E 103°53'0 0.0
2017-Feb-21 14:34N 01°15' E 103°53'0 0.0
2017-Feb-21 13:33N 01°15' E 103°53'0 0.0
2017-Feb-21 12:31N 01°15' E 103°53'0 0.0
2017-Feb-21 11:34N 01°15' E 103°53'0 0.0
2017-Feb-21 10:31N 01°15' E 103°53'0 0.1
2017-Feb-21 09:21N 01°15' E 103°53'0 0.1
2017-Feb-21 08:33N 01°15' E 103°53'0 0.1
2017-Feb-21 07:33N 01°15' E 103°53'0 0.2
2017-Feb-21 06:33N 01°15' E 103°53'0 0.1
2017-Feb-21 05:32N 01°15' E 103°53'0 0.1
2017-Feb-21 04:33N 01°15' E 103°53'2 1.8
2017-Feb-21 03:33N 01°14' E 103°54'5 5.2
2017-Feb-21 02:33N 01°15' E 103°59'8 7.3
2017-Feb-21 01:30N 01°19' E 104°06'7 8.0
2017-Feb-21 00:33N 01°24' E 104°00'6 0.5
2017-Feb-20 12:07N 01°26' E 103°55'0 0.0
2017-Feb-20 10:28N 01°26' E 103°55'0 0.0
2017-Feb-20 08:31N 01°26' E 103°55'0 0.0
2017-Feb-19 12:25N 01°26' E 103°55'0 0.0
2017-Feb-19 10:31N 01°26' E 103°55'0 0.0
2017-Feb-19 09:10N 01°26' E 103°55'0 0.0
2017-Feb-19 08:07N 01°26' E 103°55'0 0.0
2017-Feb-19 07:22N 01°26' E 103°55'0 0.0
2017-Feb-19 06:22N 01°26' E 103°55'0 0.0
2017-Feb-19 04:31N 01°26' E 103°55'0 0.0
2017-Feb-19 03:31N 01°26' E 103°55'0 0.0
2017-Feb-18 16:19N 01°26' E 103°55'0 0.0
2017-Feb-18 15:28N 01°26' E 103°55'0 0.0
2017-Feb-18 11:07N 01°26' E 103°55'0 0.0
2017-Feb-18 10:22N 01°26' E 103°55'0 0.0
2017-Feb-18 08:28N 01°26' E 103°55'0 0.0
2017-Feb-18 07:25N 01°26' E 103°55'0 0.0
2017-Feb-18 06:31N 01°26' E 103°55'0 0.0
2017-Feb-18 05:16N 01°26' E 103°55'0 0.0
2017-Feb-18 04:31N 01°26' E 103°55'0 0.0
2017-Feb-18 03:28N 01°26' E 103°55'0 0.0
2017-Feb-18 01:10N 01°26' E 103°55'0 0.0
2017-Feb-18 00:25N 01°26' E 103°55'0 0.0
2017-Feb-17 23:31N 01°26' E 103°55'0 0.0
2017-Feb-17 21:31N 01°26' E 103°55'0 0.0
2017-Feb-17 20:25N 01°26' E 103°55'0 0.0
2017-Feb-17 19:31N 01°26' E 103°55'0 0.0
2017-Feb-17 18:31N 01°26' E 103°55'0 0.0
2017-Feb-17 17:25N 01°26' E 103°55'0 0.0
2017-Feb-17 16:22N 01°26' E 103°55'0 0.0
2017-Feb-17 15:22N 01°26' E 103°55'0 0.0
2017-Feb-17 14:19N 01°26' E 103°55'0 0.0
2017-Feb-17 13:19N 01°26' E 103°55'0 0.0
2017-Feb-17 11:22N 01°26' E 103°55'0 0.0
2017-Feb-17 10:28N 01°26' E 103°55'0 0.0
2017-Feb-17 09:22N 01°26' E 103°55'0 0.0
2017-Feb-17 04:28N 01°26' E 103°55'0 0.0
2017-Feb-17 02:16N 01°26' E 103°55'0 0.0
2017-Feb-17 01:22N 01°26' E 103°55'0 0.0
2017-Feb-16 05:13N 01°26' E 103°55'0 0.0
2017-Feb-15 23:25N 01°26' E 103°55'0 0.0
2017-Feb-14 20:16N 01°26' E 103°55'0 0.0
2017-Feb-14 19:16N 01°26' E 103°55'0 0.0
2017-Feb-14 18:10N 01°26' E 103°55'0 0.0
2017-Feb-14 17:22N 01°26' E 103°55'0 0.0
2017-Feb-14 13:25N 01°26' E 103°55'0 0.0
2017-Feb-14 11:16N 01°26' E 103°55'0 0.0
2017-Feb-14 10:25N 01°26' E 103°55'0 0.0
2017-Feb-14 09:31N 01°26' E 103°55'0 0.0
2017-Feb-14 08:28N 01°26' E 103°55'0 0.0
2017-Feb-14 07:31N 01°26' E 103°55'0 0.0
2017-Feb-14 06:22N 01°26' E 103°55'0 0.0
2017-Feb-14 05:10N 01°26' E 103°55'0 0.0
2017-Feb-14 04:04N 01°26' E 103°55'0 0.0
2017-Feb-14 02:22N 01°26' E 103°55'0 0.0
2017-Feb-14 01:22N 01°26' E 103°55'0 0.0
2017-Feb-13 20:28N 01°26' E 103°55'0 0.0
2017-Feb-13 19:25N 01°26' E 103°55'0 0.0
2017-Feb-13 17:28N 01°26' E 103°55'0 0.0
2017-Feb-13 15:07N 01°26' E 103°55'0 0.0
2017-Feb-13 14:19N 01°26' E 103°55'0 0.0
2017-Feb-13 11:31N 01°26' E 103°55'0 0.0
2017-Feb-13 10:28N 01°26' E 103°55'0 0.0
2017-Feb-13 09:16N 01°26' E 103°55'0 0.0
2017-Feb-13 08:13N 01°26' E 103°55'0 0.0
2017-Feb-13 07:28N 01°26' E 103°55'0 0.0
2017-Feb-13 04:04N 01°26' E 103°55'0 0.0
2017-Feb-13 03:13N 01°26' E 103°55'0 0.0
2017-Feb-13 01:16N 01°26' E 103°55'0 0.0
2017-Feb-13 00:16N 01°26' E 103°55'0 0.0
2017-Feb-12 22:31N 01°26' E 103°55'0 0.0
2017-Feb-12 21:31N 01°26' E 103°55'0 0.0
2017-Feb-12 20:28N 01°26' E 103°55'0 0.0
2017-Feb-12 19:22N 01°26' E 103°55'0 0.0
2017-Feb-12 18:31N 01°26' E 103°55'0 0.0
2017-Feb-12 15:22N 01°26' E 103°55'  
Track history (hours):
 
Tides and Currents Weather Stations Pressure Air Temp Water Temp Dewpoint Dewpoint Depression Visibility Wind Speed Wind Dir Waves Ship Positions

Chem Orion

Last reported at 2017-Feb-22 14:31 UTC. Time now 2017-Feb-22 15:31 UTC.
Position N 01°15' E 103°53'.

Length 125 m; draft 5.1 m.

Type: Ship (hazmat cat D). MMSI: 538002197.

Date/timePositionNaut miles runAvg speedWind from/ knotsBaromVisibWave heightAir tempDewpointWater temp
2017-Feb-22 14:31N 01°15' E 103°53'0 0.0
2017-Feb-22 13:28N 01°15' E 103°53'0 0.0
2017-Feb-22 12:28N 01°15' E 103°53'0 0.0
2017-Feb-22 11:31N 01°15' E 103°53'0 0.0
2017-Feb-22 10:25N 01°15' E 103°53'0 0.0
2017-Feb-22 09:31N 01°15' E 103°53'0 0.0
2017-Feb-22 08:34N 01°15' E 103°53'0 0.0
2017-Feb-22 07:25N 01°15' E 103°53'0 0.1
2017-Feb-22 06:34N 01°15' E 103°53'0 0.1
2017-Feb-22 05:31N 01°15' E 103°53'0 0.1
2017-Feb-22 04:34N 01°15' E 103°53'0 0.0
2017-Feb-22 03:28N 01°15' E 103°53'0 0.1
2017-Feb-22 02:34N 01°15' E 103°53'0 0.2
2017-Feb-22 01:22N 01°15' E 103°53'0 0.0
2017-Feb-22 00:34N 01°15' E 103°53'0 0.1
2017-Feb-21 23:34N 01°15' E 103°53'0 0.1
2017-Feb-21 22:33N 01°15' E 103°53'0 0.0
2017-Feb-21 21:31N 01°15' E 103°53'0 0.0
2017-Feb-21 20:34N 01°15' E 103°53'0 0.1
2017-Feb-21 19:30N 01°15' E 103°53'0 0.0
2017-Feb-21 18:27N 01°15' E 103°53'0 0.1
2017-Feb-21 17:34N 01°15' E 103°53'0 0.0
2017-Feb-21 16:31N 01°15' E 103°53'0 0.0
2017-Feb-21 15:16N 01°15' E 103°53'0 0.0
2017-Feb-21 14:34N 01°15' E 103°53'0 0.0
2017-Feb-21 13:33N 01°15' E 103°53'0 0.0
2017-Feb-21 12:31N 01°15' E 103°53'0 0.0
2017-Feb-21 11:34N 01°15' E 103°53'0 0.0
2017-Feb-21 10:31N 01°15' E 103°53'0 0.1
2017-Feb-21 09:21N 01°15' E 103°53'0 0.1
2017-Feb-21 08:33N 01°15' E 103°53'0 0.1
2017-Feb-21 07:33N 01°15' E 103°53'0 0.2
2017-Feb-21 06:33N 01°15' E 103°53'0 0.1
2017-Feb-21 05:32N 01°15' E 103°53'0 0.1
2017-Feb-21 04:33N 01°15' E 103°53'2 1.8
2017-Feb-21 03:33N 01°14' E 103°54'5 5.2
2017-Feb-21 02:33N 01°15' E 103°59'8 7.3
2017-Feb-21 01:30N 01°19' E 104°06'7 8.0
2017-Feb-21 00:33N 01°24' E 104°00'6 0.5
2017-Feb-20 12:07N 01°26' E 103°55'0 0.0
2017-Feb-20 10:28N 01°26' E 103°55'0 0.0
2017-Feb-20 08:31N 01°26' E 103°55'0 0.0
2017-Feb-19 12:25N 01°26' E 103°55'0 0.0
2017-Feb-19 10:31N 01°26' E 103°55'0 0.0
2017-Feb-19 09:10N 01°26' E 103°55'0 0.0
2017-Feb-19 08:07N 01°26' E 103°55'0 0.0
2017-Feb-19 07:22N 01°26' E 103°55'0 0.0
2017-Feb-19 06:22N 01°26' E 103°55'0 0.0
2017-Feb-19 04:31N 01°26' E 103°55'0 0.0
2017-Feb-19 03:31N 01°26' E 103°55'0 0.0
2017-Feb-18 16:19N 01°26' E 103°55'0 0.0
2017-Feb-18 15:28N 01°26' E 103°55'0 0.0
2017-Feb-18 11:07N 01°26' E 103°55'0 0.0
2017-Feb-18 10:22N 01°26' E 103°55'0 0.0
2017-Feb-18 08:28N 01°26' E 103°55'0 0.0
2017-Feb-18 07:25N 01°26' E 103°55'0 0.0
2017-Feb-18 06:31N 01°26' E 103°55'0 0.0
2017-Feb-18 05:16N 01°26' E 103°55'0 0.0
2017-Feb-18 04:31N 01°26' E 103°55'0 0.0
2017-Feb-18 03:28N 01°26' E 103°55'0 0.0
2017-Feb-18 01:10N 01°26' E 103°55'0 0.0
2017-Feb-18 00:25N 01°26' E 103°55'0 0.0
2017-Feb-17 23:31N 01°26' E 103°55'0 0.0
2017-Feb-17 21:31N 01°26' E 103°55'0 0.0
2017-Feb-17 20:25N 01°26' E 103°55'0 0.0
2017-Feb-17 19:31N 01°26' E 103°55'0 0.0
2017-Feb-17 18:31N 01°26' E 103°55'0 0.0
2017-Feb-17 17:25N 01°26' E 103°55'0 0.0
2017-Feb-17 16:22N 01°26' E 103°55'0 0.0
2017-Feb-17 15:22N 01°26' E 103°55'0 0.0
2017-Feb-17 14:19N 01°26' E 103°55'0 0.0
2017-Feb-17 13:19N 01°26' E 103°55'0 0.0
2017-Feb-17 11:22N 01°26' E 103°55'0 0.0
2017-Feb-17 10:28N 01°26' E 103°55'0 0.0
2017-Feb-17 09:22N 01°26' E 103°55'0 0.0
2017-Feb-17 04:28N 01°26' E 103°55'0 0.0
2017-Feb-17 02:16N 01°26' E 103°55'0 0.0
2017-Feb-17 01:22N 01°26' E 103°55'0 0.0
2017-Feb-16 05:13N 01°26' E 103°55'0 0.0
2017-Feb-15 23:25N 01°26' E 103°55'0 0.0
2017-Feb-14 20:16N 01°26' E 103°55'0 0.0
2017-Feb-14 19:16N 01°26' E 103°55'0 0.0
2017-Feb-14 18:10N 01°26' E 103°55'0 0.0
2017-Feb-14 17:22N 01°26' E 103°55'0 0.0
2017-Feb-14 13:25N 01°26' E 103°55'0 0.0
2017-Feb-14 11:16N 01°26' E 103°55'0 0.0
2017-Feb-14 10:25N 01°26' E 103°55'0 0.0
2017-Feb-14 09:31N 01°26' E 103°55'0 0.0
2017-Feb-14 08:28N 01°26' E 103°55'0 0.0
2017-Feb-14 07:31N 01°26' E 103°55'0 0.0
2017-Feb-14 06:22N 01°26' E 103°55'0 0.0
2017-Feb-14 05:10N 01°26' E 103°55'0 0.0
2017-Feb-14 04:04N 01°26' E 103°55'0 0.0
2017-Feb-14 02:22N 01°26' E 103°55'0 0.0
2017-Feb-14 01:22N 01°26' E 103°55'0 0.0
2017-Feb-13 20:28N 01°26' E 103°55'0 0.0
2017-Feb-13 19:25N 01°26' E 103°55'0 0.0
2017-Feb-13 17:28N 01°26' E 103°55'0 0.0
2017-Feb-13 15:07N 01°26' E 103°55'0 0.0
2017-Feb-13 14:19N 01°26' E 103°55'0 0.0
2017-Feb-13 11:31N 01°26' E 103°55'0 0.0
2017-Feb-13 10:28N 01°26' E 103°55'0 0.0
2017-Feb-13 09:16N 01°26' E 103°55'0 0.0
2017-Feb-13 08:13N 01°26' E 103°55'0 0.0
2017-Feb-13 07:28N 01°26' E 103°55'0 0.0
2017-Feb-13 04:04N 01°26' E 103°55'0 0.0
2017-Feb-13 03:13N 01°26' E 103°55'0 0.0
2017-Feb-13 01:16N 01°26' E 103°55'0 0.0
2017-Feb-13 00:16N 01°26' E 103°55'0 0.0
2017-Feb-12 22:31N 01°26' E 103°55'0 0.0
2017-Feb-12 21:31N 01°26' E 103°55'0 0.0
2017-Feb-12 20:28N 01°26' E 103°55'0 0.0
2017-Feb-12 19:22N 01°26' E 103°55'0 0.0
2017-Feb-12 18:31N 01°26' E 103°55'0 0.0
2017-Feb-12 15:22N 01°26' E 103°55'  

Dump ship's entire track history